Du har inga inställningar för hoppväder.nu

Hoppväder.nu

Senast uppdaterat 13:56

UTC-tid

2022-11-27 kl. 12:56


Sol och måne

Solen går upp 8:26 och går ner 14:51 (beräknade cirkatider)
Nästa fullmåne blir om 11 dagar (2022-12-08)

METAR

ESSA (Arlanda, Stockholm)
(6 minuter sedan)
ESSA 271250Z 02004KT 6000 BR BKN002 BKN046 01/00 Q1027 BECMG FEW004 BKN018=



ESSD (Borlänge)
(6 minuter sedan)
ESSD 271250Z AUTO 11006KT 9999 OVC003/// M01/M01 Q1026=



EFMA (Mariehamn)
(6 minuter sedan)
EFMA 271250Z AUTO 11005KT 9999 -SHRA FEW020 OVC029 02/01 Q1028=



ESOW (Västerås)
(6 minuter sedan)
ESOW 271250Z AUTO 04004KT 9999 FEW007/// OVC020/// 01/M01 Q1027=






TAF

ESSA (Arlanda, Stockholm)
(62 minuter sedan)
ESSA AMD 271154Z 2712/2812 02003KT 9999 OVC003 BECMG 2712/2714 FEW004 BKN018 TEMPO 2714/2803 4000 -DZ BR BKN006 PROB40 2803/2812 BKN013=



ESSD (Borlänge)
ESSD



EFMA (Mariehamn)
(92 minuter sedan)
EFMA 271124Z 2712/2721 11005KT 9999 -RA SCT007 OVC020 TEMPO 2712/2721 BKN007=



ESOW (Västerås)
ESOW





Kodnycklar till TAF och METAR






LHP

(Gryttjom är område se34e i Delområde 1)

Översikt

ÖVERSIKT FÖR OMRÅDE se3 UTFÄRDAD 271242

GÄLLANDE DEN 27 NOVEMBER 2022 MELLAN 13 OCH 21 UTC


Väderöversikt
Sydlig luftström med fuktig luft.

Sikt under 5 kilometer eller molnbas under 1000 fot
13-17UTC: I hela området

Måttlig eller svår isbildning
13-17UTC: I hela området

Måttlig eller svår turbulens
Väntas inte förekomma under perioden


Delområde 1

PROGNOS FÖR OMRÅDE se34 UTFÄRDAD 271242
GÄLLANDE DEN 27 NOVEMBER 2022 MELLAN 13 OCH 21 UTC


Måttlig eller svår turbulens
13-21UTC: I hela området: Väntas inte förekomma under perioden

Måttlig eller svår isbildning
13-21UTC: Område se34f,se34e,se34c: måttlig isbildning 500ft - FL050, måttlig isbildning 1500ft - FL090
Område se34b,se34a: måttlig isbildning 1500ft - FL090
Område se34d: måttlig isbildning 500ft - FL050


Sikt/Väder/Moln
13-21UTC: Område se34b,se34a,se34f,se34e: Sikt >8km, lokalt 1.5km - 3km i dis, duggregn. Molnbas >2000ft, lokalt 500ft - 1000ft.
Område se34d,se34c: Sikt <1.5km - >8km i dis, dimma, duggregn. Molnbas <500ft - >2000ft.


Molnöversida
13-21UTC: Område se34d: Molnöversida FL050.
Område se34b,se34a,se34f,se34e,se34c: Molnöversida FL090.


CB/TCU Moln
13-21UTC: I hela området: Väntas inte förekomma under perioden

Nollgradersisoterm
13-21UTC: Område se34b,se34a,se34f: Noll grader SFC - 1500ft.
Område se34e,se34d,se34c: Noll grader SFC - 1000ft.


Vind vid marken
13-15UTC: Område se34c: SO/0-6 knop.
Område se34a: SO/0-4 knop.
Område se34d: Lugnt.
Område se34f: N-NO/1-4 knop.
Område se34b: O-SO/0-11 knop, byar upp till 15 knop.

13-21UTC: Område se34e: Lugnt.

15-17UTC: Område se34f: Vrb/0-4 knop.
Område se34c: SO-S/0-5 knop, byar upp till 11 knop.
Område se34a: S/0-6 knop.
Område se34b: O-SO/0-13 knop, byar upp till 17 knop.
Område se34d: O-SO/0-4 knop.

17-19UTC: Område se34b: SO/0-14 knop, byar upp till 18 knop.
Område se34a: Vrb/0-9 knop, byar upp till 12 knop.
Område se34d: O-SO/1-5 knop, byar upp till 12 knop.
Område se34c: O-SO/0-4 knop.

17-21UTC: Område se34f: Lugnt.

19-21UTC: Område se34b: SO/0-16 knop, byar upp till 20 knop.
Område se34a: Vrb/0-12 knop, byar upp till 15 knop.
Område se34c: O-SO/0-5 knop.
Område se34d: O-SO/2-5 knop.


Genomsnittlig vind och temperatur för området

2000ft:
13-15UTC: 140/8kt -2.
15-17UTC: 150/9kt -2.
17-19UTC: 150/10kt -2.
19-21UTC: 150/11kt -2.

FL050:
13-15UTC: 130/4kt -3.
15-17UTC: 140/5kt -3.
17-19UTC: 150/6kt -4.
19-21UTC: 150/7kt -4.

FL100:
13-15UTC: 140/3kt -9.
15-17UTC: 130/4kt -9.
17-19UTC: 140/6kt -9.
19-21UTC: 150/7kt -9.

Lägsta QNH
13-15UTC: I hela området: 1023 hPa
15-17UTC: I hela området: 1024 hPa
17-21UTC: I hela området: 1023 hPa

OBS! endast utbredd måttlig eller svår isbildning och turbulens prognostiseras i LLF.
Avsaknad av isbildning och turbulens i prognosen utesluter inte förekomst av lätt isbildning och turbulens.
För indikation på lätt isbildning, var vänlig kontrollera om prognosen för molntopp ligger högre än nollgradersisotermen.
Förekomst av TCU eller CB medför alltid en risk för måttlig eller svår isbildning och turbulens även om det inte framgår explicit av prognosen.








Spotting

Hur fungerar spotthjälpen och Vindkartan?

Markvind är ca 0 m/s.
Vind på 600 m ca 4 m/s.
Vind på 1500 m ca 2 m/s.
Vind på 3000 m ca 2 m/s.
SE-GEE flyger ca 44 m/s över marken på finalen.
Du driver ca 69 m bakåt i frifall. (93 m)
Lämplig spot är 5 sekunder eller 219 m innan gropen.
(-4s eller -175 m)
För små grupper eller ensamhoppare bör man vänta 3-5 sekunder mellan grupperna.
För större grupper bör man vänta 7-9 sekunder mellan grupperna.


Vindkartan

Senast uppdaterad 13:56




All data kommer från LFV.se